Time;durP1;ratioP1;P1;durP2;ratioP2;P2;SDS_P1;SDS_P2;PMS_P1;PMS_P2;Temp;Humidity;BMP_temperature;BMP_pressure;BME280_temperature;BME280_humidity;BME280_pressure;Samples;Min_cycle;Max_cycle;Signal;HPM_P1;HPM_P2
2021/07/25 00:00:32;;;;;;;;;;;;;;;24.09;59.11;100546.19;2211653;39;115226;-54
2021/07/25 00:02:04;;;;;;;;;;;;;;;24.07;59.27;100548.56;2213743;39;115156;-54
2021/07/25 00:03:36;;;;;;;;;;;;;;;24.10;58.76;100547.03;2213987;39;114858;-53
2021/07/25 00:05:08;;;;;;;;;;;;;;;24.10;58.73;100541.38;2208905;39;114996;-54
2021/07/25 00:06:40;;;;;;;;;;;;;;;24.08;58.63;100543.72;2207648;39;114579;-54
2021/07/25 00:08:12;;;;;;;;;;;;;;;24.06;58.95;100543.25;2203180;39;115516;-54
2021/07/25 00:09:43;;;;;;;;;;;;;;;24.04;58.82;100540.75;2205703;39;115768;-54
2021/07/25 00:11:17;;;;;;;;;;;;;;;24.05;59.00;100536.75;2211444;39;115690;-54
2021/07/25 00:12:49;;;;;;;;;;;;;;;24.06;58.89;100541.25;2210234;39;115420;-54
2021/07/25 00:14:21;;;;;;;;;;;;;;;24.06;58.61;100537.59;2208508;39;115597;-55
2021/07/25 00:15:52;;;;;;;;;;;;;;;24.02;58.87;100540.28;2213274;39;114694;-54
2021/07/25 00:17:40;;;;;;;;;;;;;;;24.05;58.57;100533.09;2212117;39;115861;-54
2021/07/25 00:19:12;;;;;;;;;;;;;;;24.04;58.65;100548.38;2209489;39;114693;-53
2021/07/25 00:20:44;;;;;;;;;;;;;;;24.04;58.94;100546.38;2210605;39;115888;-54
2021/07/25 00:22:15;;;;;;;;;;;;;;;24.05;58.85;100545.22;2210579;39;116069;-54
2021/07/25 00:23:49;;;;;;;;;;;;;;;24.06;58.95;100540.41;2206844;39;116354;-54
2021/07/25 00:25:21;;;;;;;;;;;;;;;24.01;59.08;100541.44;2213574;39;115474;-54
2021/07/25 00:26:53;;;;;;;;;;;;;;;24.01;59.17;100547.09;2210449;39;113909;-54
2021/07/25 00:28:32;;;;;;;;;;;;;;;24.02;59.29;100543.09;2211186;39;113702;-53
2021/07/25 00:30:04;;;;;;;;;;;;;;;24.01;59.05;100541.44;2210440;39;113768;-53
2021/07/25 00:31:37;;;;;;;;;;;;;;;24.03;59.23;100541.09;2205025;39;113623;-54
2021/07/25 00:33:09;;;;;;;;;;;;;;;24.03;59.18;100535.47;2208834;39;113875;-54
2021/07/25 00:34:40;;;;;;;;;;;;;;;24.01;59.19;100538.63;2211215;39;113694;-54
2021/07/25 00:36:12;;;;;;;;;;;;;;;24.02;59.26;100539.44;2210575;39;113804;-54
2021/07/25 00:37:47;;;;;;;;;;;;;;;23.99;59.02;100531.66;2211027;39;113815;-54
2021/07/25 00:39:19;;;;;;;;;;;;;;;24.01;59.30;100529.31;2209688;39;113728;-54
2021/07/25 00:40:52;;;;;;;;;;;;;;;23.97;59.46;100520.72;2211053;39;113651;-54
2021/07/25 00:42:24;;;;;;;;;;;;;;;24.01;59.13;100529.31;2210886;39;114040;-54
2021/07/25 00:43:56;;;;;;;;;;;;;;;23.98;59.13;100527.19;2211428;39;113944;-54
2021/07/25 00:45:28;;;;;;;;;;;;;;;23.99;59.13;100526.00;2210219;39;113667;-54
2021/07/25 00:47:01;;;;;;;;;;;;;;;23.96;59.37;100516.25;2208905;39;113891;-54
2021/07/25 00:48:34;;;;;;;;;;;;;;;23.96;59.38;100524.69;2217335;39;113838;-54
2021/07/25 00:50:07;;;;;;;;;;;;;;;23.96;59.36;100519.06;2212113;39;114335;-54
2021/07/25 00:51:39;;;;;;;;;;;;;;;23.96;59.16;100519.06;2209117;39;115111;-54
2021/07/25 00:53:11;;;;;;;;;;;;;;;23.94;59.29;100522.22;2211377;39;114919;-54
2021/07/25 00:54:43;;;;;;;;;;;;;;;23.93;59.62;100514.09;2211186;39;115220;-54
2021/07/25 00:56:15;;;;;;;;;;;;;;;23.97;59.28;100515.06;2210996;39;114912;-54
2021/07/25 00:57:47;;;;;;;;;;;;;;;23.95;59.31;100511.75;2211032;39;114233;-54
2021/07/25 00:59:19;;;;;;;;;;;;;;;23.94;59.33;100510.09;2208905;39;114899;-54
2021/07/25 01:00:50;;;;;;;;;;;;;;;23.96;59.20;100513.41;2210678;39;114886;-54
2021/07/25 01:02:24;;;;;;;;;;;;;;;23.93;59.62;100506.47;2210567;39;115982;-54
2021/07/25 01:04:02;;;;;;;;;;;;;;;23.90;59.27;100509.97;2210121;39;116566;-54
2021/07/25 01:05:45;;;;;;;;;;;;;;;23.91;59.11;100516.44;2210894;39;113844;-54
2021/07/25 01:07:26;;;;;;;;;;;;;;;23.91;59.21;100513.59;2214865;39;114907;-54
2021/07/25 01:09:01;;;;;;;;;;;;;;;23.90;59.39;100507.13;2210615;39;114513;-54
2021/07/25 01:10:33;;;;;;;;;;;;;;;23.91;59.28;100505.16;2213501;39;113910;-54
2021/07/25 01:12:06;;;;;;;;;;;;;;;23.92;59.32;100507.63;2210642;39;115575;-54
2021/07/25 01:13:39;;;;;;;;;;;;;;;23.86;59.08;100509.00;2203578;39;115656;-54
2021/07/25 01:15:14;;;;;;;;;;;;;;;23.89;59.22;100507.50;2203701;39;114657;-54
2021/07/25 01:16:45;;;;;;;;;;;;;;;23.87;59.08;100502.19;2208935;39;115515;-54
2021/07/25 01:18:17;;;;;;;;;;;;;;;23.88;59.20;100505.84;2210806;39;116064;-54
2021/07/25 01:19:49;;;;;;;;;;;;;;;23.88;59.03;100500.19;2207283;39;115492;-54
2021/07/25 01:21:21;;;;;;;;;;;;;;;23.87;59.31;100504.19;2207662;39;115486;-54
2021/07/25 01:22:54;;;;;;;;;;;;;;;23.91;59.15;100503.16;2210285;39;115504;-54
2021/07/25 01:24:26;;;;;;;;;;;;;;;23.84;59.20;100513.34;2210816;39;115364;-54
2021/07/25 01:26:00;;;;;;;;;;;;;;;23.86;59.39;100510.97;2210204;39;114521;-54
2021/07/25 01:27:41;;;;;;;;;;;;;;;23.85;59.24;100514.97;2211066;39;115794;-54
2021/07/25 01:29:12;;;;;;;;;;;;;;;23.84;58.76;100516.16;2210341;39;115446;-54
2021/07/25 01:30:48;;;;;;;;;;;;;;;23.83;59.18;100517.31;2207351;39;115936;-54
2021/07/25 01:32:21;;;;;;;;;;;;;;;23.82;59.15;100516.50;2212420;39;115544;-54
2021/07/25 01:33:53;;;;;;;;;;;;;;;23.83;59.03;100522.97;2205443;39;113698;-54
2021/07/25 01:35:25;;;;;;;;;;;;;;;23.80;59.25;100518.81;2209708;39;113846;-54
2021/07/25 01:36:58;;;;;;;;;;;;;;;23.80;59.18;100510.34;2203664;39;113826;-55
2021/07/25 01:38:31;;;;;;;;;;;;;;;23.82;59.24;100513.66;2207392;39;113742;-54
2021/07/25 01:40:10;;;;;;;;;;;;;;;23.82;59.21;100504.38;2209804;39;114300;-54
2021/07/25 01:41:43;;;;;;;;;;;;;;;23.80;59.21;100504.72;2207927;39;113760;-54
2021/07/25 01:43:14;;;;;;;;;;;;;;;23.83;59.20;100511.69;2207872;39;113861;-54
2021/07/25 01:44:46;;;;;;;;;;;;;;;23.78;58.97;100504.25;2207921;39;113756;-54
2021/07/25 01:46:18;;;;;;;;;;;;;;;23.77;58.99;100510.22;2210327;39;113724;-54
2021/07/25 01:47:50;;;;;;;;;;;;;;;23.81;59.07;100511.19;2209937;39;113742;-54
2021/07/25 01:49:22;;;;;;;;;;;;;;;23.79;59.05;100510.72;2210778;39;113824;-54
2021/07/25 01:50:54;;;;;;;;;;;;;;;23.76;59.20;100512.19;2206737;39;113763;-54
2021/07/25 01:52:26;;;;;;;;;;;;;;;23.77;59.17;100513.03;2210302;39;113756;-54
2021/07/25 01:53:57;;;;;;;;;;;;;;;23.80;58.95;100509.56;2212715;39;113751;-54
2021/07/25 01:55:29;;;;;;;;;;;;;;;23.80;58.99;100507.53;2208746;39;115021;-54
2021/07/25 01:57:01;;;;;;;;;;;;;;;23.79;59.15;100508.72;2210795;39;113984;-54
2021/07/25 01:58:32;;;;;;;;;;;;;;;23.75;59.60;100512.56;2210662;39;114712;-54
2021/07/25 02:00:05;;;;;;;;;;;;;;;23.77;59.50;100504.56;2211103;39;114523;-54
2021/07/25 02:01:37;;;;;;;;;;;;;;;23.78;59.68;100506.22;2207915;39;113955;-54
2021/07/25 02:03:09;;;;;;;;;;;;;;;23.72;59.34;100502.78;2209951;39;114067;-54
2021/07/25 02:04:41;;;;;;;;;;;;;;;23.75;59.42;100502.13;2208543;39;115625;-54
2021/07/25 02:06:12;;;;;;;;;;;;;;;23.71;59.48;100498.28;2209937;39;114901;-54
2021/07/25 02:07:44;;;;;;;;;;;;;;;23.72;59.42;100497.13;2214056;39;114766;-54
2021/07/25 02:09:16;;;;;;;;;;;;;;;23.75;59.60;100502.13;2212003;39;114217;-54
2021/07/25 02:10:49;;;;;;;;;;;;;;;23.72;59.42;100493.47;2210692;39;114932;-54
2021/07/25 02:12:20;;;;;;;;;;;;;;;23.72;59.38;100494.31;2209342;39;115666;-54
2021/07/25 02:13:53;;;;;;;;;;;;;;;23.71;59.41;100497.50;2210434;39;114897;-53
2021/07/25 02:15:24;;;;;;;;;;;;;;;23.72;59.61;100490.66;2212867;39;114917;-54
2021/07/25 02:16:56;;;;;;;;;;;;;;;23.70;59.70;100496.66;2209597;39;115144;-54
2021/07/25 02:18:28;;;;;;;;;;;;;;;23.67;59.62;100494.50;2208771;39;115122;-53
2021/07/25 02:20:00;;;;;;;;;;;;;;;23.68;59.61;100493.34;2210119;39;115010;-54
2021/07/25 02:21:31;;;;;;;;;;;;;;;23.71;59.65;100492.66;2215620;39;115810;-54
2021/07/25 02:23:03;;;;;;;;;;;;;;;23.69;59.68;100488.53;2212737;39;116096;-53
2021/07/25 02:24:35;;;;;;;;;;;;;;;23.70;59.64;100501.47;2210274;39;115509;-54
2021/07/25 02:26:06;;;;;;;;;;;;;;;23.72;59.59;100493.47;2206182;39;115638;-54
2021/07/25 02:27:38;;;;;;;;;;;;;;;23.70;59.79;100487.38;2208707;39;115768;-54
2021/07/25 02:29:10;;;;;;;;;;;;;;;23.70;59.67;100490.19;2209402;39;115611;-54
2021/07/25 02:30:41;;;;;;;;;;;;;;;23.67;59.58;100490.84;2208993;39;115822;-54
2021/07/25 02:32:14;;;;;;;;;;;;;;;23.65;59.72;100482.75;2211021;39;115532;-54
2021/07/25 02:33:47;;;;;;;;;;;;;;;23.66;59.77;100484.41;2208280;39;114570;-54
2021/07/25 02:35:18;;;;;;;;;;;;;;;23.66;59.61;100477.94;2211392;39;114727;-54
2021/07/25 02:36:50;;;;;;;;;;;;;;;23.64;59.51;100480.25;2210867;39;115949;-54
2021/07/25 02:38:22;;;;;;;;;;;;;;;23.64;59.58;100477.44;2213882;39;115713;-54
2021/07/25 02:39:53;;;;;;;;;;;;;;;23.68;59.92;100475.59;2210774;39;113611;-53
2021/07/25 02:41:25;;;;;;;;;;;;;;;23.66;59.97;100477.94;2209318;39;114329;-54
2021/07/25 02:42:57;;;;;;;;;;;;;;;23.64;59.71;100483.91;2209078;39;113651;-54
2021/07/25 02:44:28;;;;;;;;;;;;;;;23.68;59.85;100472.75;2210684;39;113989;-54
2021/07/25 02:46:00;;;;;;;;;;;;;;;23.63;60.02;100484.25;2211541;39;113918;-54
2021/07/25 02:47:32;;;;;;;;;;;;;;;23.63;59.95;100482.25;2206349;39;113707;-53
2021/07/25 02:49:04;;;;;;;;;;;;;;;23.62;59.65;100472.13;2211064;39;113788;-54
2021/07/25 02:50:35;;;;;;;;;;;;;;;23.62;59.81;100479.78;2210843;39;113891;-59
2021/07/25 02:52:07;;;;;;;;;;;;;;;23.66;59.77;100480.75;2208837;39;114079;-54
2021/07/25 02:53:39;;;;;;;;;;;;;;;23.64;59.83;100483.91;2211483;39;113821;-54
2021/07/25 02:55:11;;;;;;;;;;;;;;;23.61;59.82;100480.94;2211346;39;113929;-54
2021/07/25 02:56:42;;;;;;;;;;;;;;;23.65;59.84;100484.75;2211072;39;114047;-54
2021/07/25 02:58:14;;;;;;;;;;;;;;;23.61;59.70;100484.59;2211610;39;113762;-54
2021/07/25 02:59:46;;;;;;;;;;;;;;;23.61;60.00;100484.59;2213177;39;113827;-54
2021/07/25 03:01:18;;;;;;;;;;;;;;;23.57;59.82;100477.16;2210206;39;114914;-54
2021/07/25 03:02:50;;;;;;;;;;;;;;;23.60;59.89;100473.66;2211052;39;114778;-54
2021/07/25 03:04:22;;;;;;;;;;;;;;;23.59;60.32;100477.63;2212036;39;114582;-54
2021/07/25 03:05:53;;;;;;;;;;;;;;;23.62;60.28;100477.78;2209902;39;115864;-54
2021/07/25 03:07:25;;;;;;;;;;;;;;;23.58;60.18;100478.78;2210647;39;115814;-54
2021/07/25 03:08:56;;;;;;;;;;;;;;;23.58;60.21;100478.78;2211533;39;114800;-54
2021/07/25 03:10:28;;;;;;;;;;;;;;;23.57;60.31;100478.00;2211316;39;113916;-54
2021/07/25 03:12:00;;;;;;;;;;;;;;;23.60;60.67;100477.31;2209692;39;113902;-54
2021/07/25 03:13:31;;;;;;;;;;;;;;;23.59;60.29;100469.16;2210904;39;115076;-55
2021/07/25 03:15:03;;;;;;;;;;;;;;;23.57;60.38;100474.34;2210732;39;114810;-54
2021/07/25 03:16:35;;;;;;;;;;;;;;;23.58;60.53;100475.97;2210984;39;114021;-54
2021/07/25 03:18:07;;;;;;;;;;;;;;;23.56;60.88;100475.50;2211155;39;115370;-54
2021/07/25 03:19:39;;;;;;;;;;;;;;;23.53;60.56;100474.16;2211202;39;114860;-54
2021/07/25 03:21:10;;;;;;;;;;;;;;;23.55;60.71;100471.03;2213821;39;114024;-54
2021/07/25 03:22:42;;;;;;;;;;;;;;;23.57;60.55;100469.53;2208144;39;115588;-54
2021/07/25 03:24:14;;;;;;;;;;;;;;;23.60;60.85;100465.19;2207829;39;115478;-54
2021/07/25 03:25:46;;;;;;;;;;;;;;;23.55;60.73;100468.19;2211753;39;115447;-54
2021/07/25 03:27:17;;;;;;;;;;;;;;;23.54;60.66;100466.53;2211019;39;114639;-54
2021/07/25 03:28:49;;;;;;;;;;;;;;;23.52;60.63;100460.44;2209339;39;114194;-54
2021/07/25 03:30:21;;;;;;;;;;;;;;;23.54;60.91;100455.25;2208396;39;115556;-55
2021/07/25 03:31:53;;;;;;;;;;;;;;;23.55;60.68;100454.09;2211586;39;115639;-54
2021/07/25 03:33:26;;;;;;;;;;;;;;;23.53;61.08;100460.06;2208427;39;115456;-54
2021/07/25 03:34:58;;;;;;;;;;;;;;;23.51;60.72;100458.78;2205620;39;115473;-53
2021/07/25 03:36:29;;;;;;;;;;;;;;;23.50;60.91;100449.47;2207726;39;115629;-54
2021/07/25 03:38:01;;;;;;;;;;;;;;;23.52;60.84;100449.16;2210792;39;114737;-54
2021/07/25 03:39:33;;;;;;;;;;;;;;;23.48;60.65;100454.66;2210546;39;115621;-54
2021/07/25 03:41:05;;;;;;;;;;;;;;;23.49;60.43;100448.66;2210087;39;114692;-54
2021/07/25 03:42:37;;;;;;;;;;;;;;;23.50;60.67;100443.84;2213555;39;114727;-54
2021/07/25 03:44:09;;;;;;;;;;;;;;;23.47;60.59;100441.72;2207815;39;113906;-54
2021/07/25 03:45:42;;;;;;;;;;;;;;;23.51;60.47;100445.50;2210699;39;113782;-54
2021/07/25 03:47:14;;;;;;;;;;;;;;;23.43;60.98;100444.38;2215284;39;114526;-54
2021/07/25 03:48:46;;;;;;;;;;;;;;;23.47;60.67;100441.72;2210434;39;113688;-54
2021/07/25 03:50:18;;;;;;;;;;;;;;;23.48;60.42;100447.00;2210123;39;113949;-54
2021/07/25 03:51:50;;;;;;;;;;;;;;;23.47;60.82;100441.72;2210588;39;113916;-54
2021/07/25 03:53:21;;;;;;;;;;;;;;;23.46;60.65;100455.00;2210458;39;113805;-54
2021/07/25 03:54:53;;;;;;;;;;;;;;;23.47;60.59;100455.81;2210185;39;114197;-54
2021/07/25 03:56:25;;;;;;;;;;;;;;;23.44;60.50;100453.66;2206548;39;113747;-54
2021/07/25 03:57:56;;;;;;;;;;;;;;;23.45;60.23;100447.69;2209461;39;113789;-54
2021/07/25 03:59:28;;;;;;;;;;;;;;;23.44;60.52;100450.84;2210834;39;113789;-54
2021/07/25 04:01:00;;;;;;;;;;;;;;;23.42;60.47;100450.34;2211044;39;113919;-54
2021/07/25 04:02:32;;;;;;;;;;;;;;;23.39;60.39;100454.66;2210286;39;113765;-55
2021/07/25 04:04:04;;;;;;;;;;;;;;;23.41;60.50;100449.50;2210285;39;113808;-54
2021/07/25 04:05:35;;;;;;;;;;;;;;;23.40;60.35;100447.00;2213751;39;113855;-54
2021/07/25 04:07:07;;;;;;;;;;;;;;;23.43;60.64;100446.34;2211288;39;114900;-53
2021/07/25 04:08:39;;;;;;;;;;;;;;;23.44;60.75;100453.66;2211241;39;115174;-54
2021/07/25 04:10:11;;;;;;;;;;;;;;;23.41;60.78;100448.69;2210050;39;116606;-54
2021/07/25 04:11:43;;;;;;;;;;;;;;;23.43;60.75;100450.00;2210111;39;114915;-54
2021/07/25 04:13:15;;;;;;;;;;;;;;;23.39;60.60;100451.03;2211347;39;114848;-55
2021/07/25 04:14:46;;;;;;;;;;;;;;;23.43;61.07;100455.66;2211164;39;115115;-54
2021/07/25 04:16:18;;;;;;;;;;;;;;;23.40;60.60;100461.13;2210763;39;115248;-54
2021/07/25 04:17:50;;;;;;;;;;;;;;;23.38;60.68;100455.84;2211049;39;115554;-54
2021/07/25 04:19:21;;;;;;;;;;;;;;;23.41;60.55;100459.94;2211294;39;115431;-54
2021/07/25 04:20:53;;;;;;;;;;;;;;;23.42;60.48;100467.25;2210778;39;114745;-54
2021/07/25 04:22:24;;;;;;;;;;;;;;;23.41;60.24;100466.41;2210756;39;114963;-54
2021/07/25 04:23:56;;;;;;;;;;;;;;;23.39;60.51;100465.13;2212550;39;114681;-54
2021/07/25 04:25:29;;;;;;;;;;;;;;;23.36;60.25;100460.97;2209298;39;114821;-54
2021/07/25 04:27:01;;;;;;;;;;;;;;;23.37;60.60;100456.16;2212726;39;115071;-54
2021/07/25 04:28:33;;;;;;;;;;;;;;;23.42;60.49;100459.63;2210357;39;115504;-54
2021/07/25 04:30:05;;;;;;;;;;;;;;;23.38;60.80;100457.81;2211554;39;115726;-54
2021/07/25 04:31:37;;;;;;;;;;;;;;;23.37;60.71;100461.81;2210812;39;116014;-54
2021/07/25 04:33:09;;;;;;;;;;;;;;;23.38;60.63;100463.47;2208284;39;115402;-54
2021/07/25 04:34:41;;;;;;;;;;;;;;;23.36;60.44;100466.59;2211251;39;114584;-54
2021/07/25 04:36:24;;;;;;;;;;;;;;;23.37;60.59;100464.63;2210972;39;115673;-54
2021/07/25 04:37:56;;;;;;;;;;;;;;;23.36;60.13;100474.25;2210106;39;115552;-54
2021/07/25 04:39:27;;;;;;;;;;;;;;;23.36;60.41;100466.59;2210853;39;115347;-54
2021/07/25 04:41:01;;;;;;;;;;;;;;;23.37;60.40;100471.09;2210106;39;115797;-54
2021/07/25 04:42:35;;;;;;;;;;;;;;;23.34;60.58;100468.97;2210831;39;115793;-54
2021/07/25 04:44:07;;;;;;;;;;;;;;;23.35;60.46;100475.41;2208934;39;115481;-54
2021/07/25 04:45:39;;;;;;;;;;;;;;;23.36;60.42;100474.25;2210368;39;115440;-54
2021/07/25 04:47:14;;;;;;;;;;;;;;;23.34;60.35;100479.41;2210898;39;114687;-54
2021/07/25 04:48:47;;;;;;;;;;;;;;;23.33;60.48;100472.09;2213476;39;114630;-54
2021/07/25 04:50:22;;;;;;;;;;;;;;;23.30;60.55;100467.16;2210952;39;114032;-54
2021/07/25 04:51:54;;;;;;;;;;;;;;;23.36;60.66;100475.06;2210206;39;113755;-54
2021/07/25 04:53:27;;;;;;;;;;;;;;;23.33;60.58;100466.47;2212454;39;113900;-54
2021/07/25 04:55:00;;;;;;;;;;;;;;;23.38;60.49;100472.75;2205755;39;113721;-54
2021/07/25 04:56:36;;;;;;;;;;;;;;;23.30;60.69;100470.81;2210856;39;113758;-54
2021/07/25 04:58:08;;;;;;;;;;;;;;;23.30;60.61;100473.63;2210167;39;114024;-54
2021/07/25 04:59:43;;;;;;;;;;;;;;;23.29;60.51;100469.16;2210836;39;113712;-54
2021/07/25 05:01:18;;;;;;;;;;;;;;;23.30;60.64;100473.63;2215495;39;113890;-54
2021/07/25 05:02:57;;;;;;;;;;;;;;;23.31;60.45;100480.06;2210985;39;113744;-54
2021/07/25 05:04:29;;;;;;;;;;;;;;;23.34;60.69;100479.41;2210864;39;113714;-54
2021/07/25 05:06:01;;;;;;;;;;;;;;;23.31;60.72;100474.44;2201235;39;113559;-54
2021/07/25 05:07:35;;;;;;;;;;;;;;;23.32;60.74;100471.28;2200123;39;113933;-54
2021/07/25 05:09:09;;;;;;;;;;;;;;;23.31;60.80;100474.44;2205580;39;114043;-54
2021/07/25 05:10:41;;;;;;;;;;;;;;;23.31;60.88;100471.59;2213494;39;113859;-54
2021/07/25 05:12:23;;;;;;;;;;;;;;;23.28;60.67;100464.66;2210238;39;114879;-54
2021/07/25 05:13:56;;;;;;;;;;;;;;;23.31;61.01;100463.16;2210659;39;114890;-54
2021/07/25 05:15:29;;;;;;;;;;;;;;;23.28;60.59;100463.84;2210757;39;115417;-54
2021/07/25 05:17:11;;;;;;;;;;;;;;;23.31;61.06;100458.34;2210876;39;114934;-54
2021/07/25 05:18:51;;;;;;;;;;;;;;;23.28;61.10;100459.03;2208072;39;114796;-54
2021/07/25 05:20:31;;;;;;;;;;;;;;;23.26;61.20;100458.53;2210852;39;114771;-54
2021/07/25 05:22:12;;;;;;;;;;;;;;;23.28;61.30;100464.66;2210622;39;115237;-53
2021/07/25 05:23:45;;;;;;;;;;;;;;;23.21;61.61;100470.03;2211940;39;114874;-54
2021/07/25 05:25:17;;;;;;;;;;;;;;;23.25;61.25;100465.34;2211407;39;114739;-54
2021/07/25 05:26:50;;;;;;;;;;;;;;;23.25;61.31;100470.16;2210446;39;114945;-54
2021/07/25 05:28:25;;;;;;;;;;;;;;;23.26;61.03;100471.81;2210777;39;114844;-54
2021/07/25 05:29:57;;;;;;;;;;;;;;;23.27;61.10;100470.63;2207218;39;114924;-54
2021/07/25 05:31:30;;;;;;;;;;;;;;;23.26;61.12;100471.81;2211328;39;114882;-54
2021/07/25 05:33:02;;;;;;;;;;;;;;;23.27;61.05;100467.81;2212764;39;114800;-54
2021/07/25 05:34:34;;;;;;;;;;;;;;;23.28;61.12;100458.19;2208686;39;115647;-54
2021/07/25 05:36:08;;;;;;;;;;;;;;;23.26;61.10;100469.00;2210697;39;116212;-54
2021/07/25 05:37:40;;;;;;;;;;;;;;;23.21;61.19;100467.19;2210111;39;116361;-54
2021/07/25 05:39:12;;;;;;;;;;;;;;;23.21;61.10;100464.38;2208841;39;115594;-54
2021/07/25 05:40:43;;;;;;;;;;;;;;;23.21;61.19;100466.38;2209548;39;115830;-53
2021/07/25 05:42:15;;;;;;;;;;;;;;;23.19;61.27;100461.06;2207946;39;114526;-53
2021/07/25 05:43:47;;;;;;;;;;;;;;;23.21;60.97;100457.91;2209464;39;115458;-54
2021/07/25 05:45:18;;;;;;;;;;;;;;;23.20;60.85;100457.09;2210496;39;115269;-54
2021/07/25 05:46:50;;;;;;;;;;;;;;;23.21;60.82;100460.72;2209233;39;115620;-54
2021/07/25 05:48:22;;;;;;;;;;;;;;;23.23;60.86;100461.19;2209824;39;115417;-54
2021/07/25 05:49:53;;;;;;;;;;;;;;;23.24;61.30;100462.88;2210268;39;115767;-54
2021/07/25 05:51:25;;;;;;;;;;;;;;;23.22;61.09;100457.56;2211057;39;115770;-54
2021/07/25 05:52:57;;;;;;;;;;;;;;;23.19;61.25;100455.44;2210465;39;117628;-54
2021/07/25 05:54:29;;;;;;;;;;;;;;;23.22;61.19;100453.91;2209163;39;114497;-54
2021/07/25 05:56:00;;;;;;;;;;;;;;;23.26;61.06;100452.88;2211948;39;115415;-53
2021/07/25 05:57:32;;;;;;;;;;;;;;;23.23;60.96;100453.56;2210531;39;113823;-55
2021/07/25 05:59:06;;;;;;;;;;;;;;;23.21;61.16;100455.94;2210715;39;113871;-55
2021/07/25 06:00:38;;;;;;;;;;;;;;;23.17;61.24;100460.56;2214601;39;113581;-53
2021/07/25 06:02:10;;;;;;;;;;;;;;;23.22;61.13;100453.91;2210707;39;114041;-54
2021/07/25 06:03:42;;;;;;;;;;;;;;;23.22;61.06;100454.75;2208059;39;113745;-54
2021/07/25 06:05:13;;;;;;;;;;;;;;;23.23;60.93;100461.19;2209561;39;113702;-54
2021/07/25 06:06:45;;;;;;;;;;;;;;;23.25;60.99;100465.34;2211055;39;113940;-54
2021/07/25 06:08:16;;;;;;;;;;;;;;;23.23;60.90;100467.66;2211360;39;113715;-54
2021/07/25 06:09:48;;;;;;;;;;;;;;;23.26;60.92;100474.63;2211322;39;113712;-54
2021/07/25 06:11:21;;;;;;;;;;;;;;;23.28;60.94;100469.47;2210491;39;113865;-54
2021/07/25 06:12:56;;;;;;;;;;;;;;;23.24;60.95;100468.50;2211164;39;113884;-54
2021/07/25 06:14:28;;;;;;;;;;;;;;;23.25;60.87;100461.72;2211760;39;113942;-54
2021/07/25 06:16:00;;;;;;;;;;;;;;;23.24;60.72;100460.88;2210872;39;113969;-54
2021/07/25 06:17:31;;;;;;;;;;;;;;;23.23;61.02;100461.19;2217731;39;113699;-54
2021/07/25 06:19:03;;;;;;;;;;;;;;;23.23;60.83;100464.84;2210591;39;113920;-54
2021/07/25 06:20:35;;;;;;;;;;;;;;;23.25;60.86;100465.34;2214649;39;114879;-54
2021/07/25 06:22:07;;;;;;;;;;;;;;;23.27;60.79;100463.00;2212987;39;115384;-54
2021/07/25 06:23:39;;;;;;;;;;;;;;;23.25;60.94;100471.00;2211336;39;115409;-56
2021/07/25 06:25:12;;;;;;;;;;;;;;;23.22;60.73;100459.53;2212316;39;115294;-54
2021/07/25 06:26:44;;;;;;;;;;;;;;;23.23;61.05;100464.03;2210585;39;114140;-54
2021/07/25 06:28:15;;;;;;;;;;;;;;;23.21;61.17;100458.75;2210901;39;115491;-55
2021/07/25 06:29:47;;;;;;;;;;;;;;;23.22;60.95;100459.53;2211015;39;114958;-54
2021/07/25 06:31:19;;;;;;;;;;;;;;;23.22;61.18;100457.56;2211099;39;114953;-54
2021/07/25 06:32:53;;;;;;;;;;;;;;;23.23;61.32;100456.41;2212371;39;114973;-54
2021/07/25 06:34:25;;;;;;;;;;;;;;;23.21;60.95;100458.75;2210662;39;115080;-53
2021/07/25 06:35:57;;;;;;;;;;;;;;;23.19;61.16;100463.88;2209589;39;115716;-54
2021/07/25 06:37:28;;;;;;;;;;;;;;;23.19;60.92;100461.06;2208761;39;115153;-54
2021/07/25 06:39:00;;;;;;;;;;;;;;;23.21;61.03;100458.75;2213905;39;114849;-54
2021/07/25 06:40:32;;;;;;;;;;;;;;;23.24;61.13;100460.88;2211265;39;115470;-53
2021/07/25 06:42:03;;;;;;;;;;;;;;;23.21;61.06;100463.56;2210894;39;115363;-54
2021/07/25 06:43:35;;;;;;;;;;;;;;;23.21;61.13;100457.91;2211551;39;115609;-54
2021/07/25 06:45:07;;;;;;;;;;;;;;;23.19;61.11;100460.22;2211097;39;116965;-54
2021/07/25 06:46:39;;;;;;;;;;;;;;;23.19;61.20;100452.59;2211478;39;115375;-54
2021/07/25 06:48:18;;;;;;;;;;;;;;;23.22;61.40;100456.72;2210204;39;115469;-54
2021/07/25 06:49:50;;;;;;;;;;;;;;;23.21;61.28;100461.56;2210681;39;116551;-54
2021/07/25 06:51:21;;;;;;;;;;;;;;;23.23;61.11;100458.38;2210903;39;115970;-54
2021/07/25 06:52:54;;;;;;;;;;;;;;;23.19;61.35;100460.22;2211324;39;115929;-54
2021/07/25 06:54:26;;;;;;;;;;;;;;;23.16;61.46;100464.56;2213684;39;115996;-54
2021/07/25 06:55:59;;;;;;;;;;;;;;;23.19;61.59;100466.69;2211157;39;115375;-54
2021/07/25 06:57:31;;;;;;;;;;;;;;;23.18;61.49;100470.69;2211243;39;115485;-54
2021/07/25 06:59:02;;;;;;;;;;;;;;;23.17;61.10;100468.22;2210490;39;115641;-54
2021/07/25 07:00:34;;;;;;;;;;;;;;;23.18;61.27;100473.50;2212942;39;115305;-54
2021/07/25 07:02:06;;;;;;;;;;;;;;;23.17;60.99;100473.84;2210285;39;113723;-54
2021/07/25 07:03:38;;;;;;;;;;;;;;;23.16;61.06;100475.00;2211324;39;113759;-54
2021/07/25 07:05:10;;;;;;;;;;;;;;;23.17;61.21;100473.84;2210950;39;113929;-54
2021/07/25 07:06:41;;;;;;;;;;;;;;;23.18;61.27;100472.66;2210644;39;113793;-54
2021/07/25 07:08:13;;;;;;;;;;;;;;;23.17;61.28;100473.84;2211398;39;113759;-54
2021/07/25 07:09:45;;;;;;;;;;;;;;;23.16;61.19;100475.00;2210370;39;114532;-54
2021/07/25 07:11:17;;;;;;;;;;;;;;;23.18;61.37;100478.31;2208700;39;113932;-54
2021/07/25 07:12:49;;;;;;;;;;;;;;;23.18;61.29;100481.13;2207741;39;113758;-54
2021/07/25 07:14:20;;;;;;;;;;;;;;;23.18;61.31;100475.47;2211023;39;113887;-54
2021/07/25 07:15:53;;;;;;;;;;;;;;;23.21;61.07;100480.47;2207350;39;113737;-54
2021/07/25 07:17:25;;;;;;;;;;;;;;;23.18;61.09;100479.13;2210196;39;114176;-54
2021/07/25 07:18:56;;;;;;;;;;;;;;;23.17;61.00;100483.09;2210856;39;113670;-54
2021/07/25 07:20:28;;;;;;;;;;;;;;;23.17;60.98;100485.13;2210779;39;113775;-54
2021/07/25 07:22:00;;;;;;;;;;;;;;;23.17;61.02;100476.66;2214236;39;113919;-54
2021/07/25 07:23:32;;;;;;;;;;;;;;;23.18;60.97;100479.13;2213131;39;114269;-53
2021/07/25 07:25:04;;;;;;;;;;;;;;;23.18;61.19;100481.94;2206297;39;115152;-53
2021/07/25 07:26:36;;;;;;;;;;;;;;;23.20;61.35;100479.63;2211257;39;114825;-54
2021/07/25 07:28:08;;;;;;;;;;;;;;;23.17;61.23;100482.31;2210809;39;114897;-53
2021/07/25 07:29:41;;;;;;;;;;;;;;;23.18;61.57;100479.13;2211117;39;115198;-54
2021/07/25 07:31:13;;;;;;;;;;;;;;;23.18;61.56;100484.78;2211344;39;114796;-54
2021/07/25 07:32:45;;;;;;;;;;;;;;;23.16;61.54;100486.28;2211404;39;114921;-54
2021/07/25 07:34:16;;;;;;;;;;;;;;;23.17;61.31;100485.94;2211342;39;114989;-53
2021/07/25 07:35:50;;;;;;;;;;;;;;;23.17;61.31;100487.94;2208388;39;115082;-54
2021/07/25 07:37:22;;;;;;;;;;;;;;;23.21;61.14;100483.28;2207312;39;113928;-54
2021/07/25 07:38:55;;;;;;;;;;;;;;;23.18;61.06;100493.22;2211176;39;114866;-54
2021/07/25 07:40:26;;;;;;;;;;;;;;;23.16;61.39;100489.09;2208587;39;114795;-54
2021/07/25 07:41:58;;;;;;;;;;;;;;;23.17;61.16;100482.31;2206338;39;114888;-54
2021/07/25 07:43:30;;;;;;;;;;;;;;;23.18;61.29;100487.59;2206272;39;113992;-56
2021/07/25 07:45:01;;;;;;;;;;;;;;;23.12;61.49;100483.31;2213404;39;114771;-54
2021/07/25 07:46:33;;;;;;;;;;;;;;;23.16;61.28;100478.66;2208175;39;116002;-53
2021/07/25 07:48:05;;;;;;;;;;;;;;;23.17;61.20;100480.28;2210900;39;115566;-54
2021/07/25 07:49:37;;;;;;;;;;;;;;;23.21;61.04;100477.66;2210622;39;115848;-54